Terminal Aerodrome Forecast
Issued by NWS

Home | Current Version | Previous Version | Text Only | Print | Product List | Glossary On
Versions: 1 2 3 4 5 6 7 8 9 10 11 12
000
FTPA31 PHFO 252300
TAFKOA
TAF
PHKO 252327Z 2600/2624 24009KT P6SM FEW030 SCT060
     FM260500 18007KT P6SM SCT050
     FM261200 08005KT P6SM FEW050
     FM262000 22010KT P6SM FEW030 SCT060=

USA.gov is the U.S. government's official web portal to all federal, state and local government web resources and services.